Accueil
METAR-TAF:

METAR-TAF

Aéroports :

Alma, Michigan, États-Unis

latitude: 43-19-19N, longitude: 084-41-16W, altitude: 229 m

Observation

Le bulletin a été fait il y a 19 minutes, à 19:35 UTC
Vent 7 kt de ouest/nord-ouest
Température 28°C
Humidité 42%
Pression 1009 hPa
Visibilité: 16.1 km
Nuages épars à une hauteur de 8500 ft

METAR: KAMN 111935Z AUTO 29007KT 10SM SCT085 28/14 A2980 RMK AO2 T02770144

Heure: 15:54 (19:54 UTC)


TAF: absent

Observations et prévisions météorologiques de plus de 4000 aéroports (messages METAR et TAF).

Les stations disponibles sont représentées par des disques jaunes et rouges sur la carte.

Passer la souris dessus pour voir le nom de la station.

Cliquer dessus pour voir les observations et prévisions météorologiques.

Pour changer de carte: cliquez sur les boutons verts avec une croix noire pour zoomer, sur le bouton vert avec un tiret pour effectuer un zoom arrière, ou sur les flèches vertes pour les cartes adjacentes.


METAR-TAF: